sensor_id;sensor_type;location;lat;lon;timestamp;P1;durP1;ratioP1;P2;durP2;ratioP2
10659;SDS011;5378;53.206;13.316;2022-11-20T00:00:47;7.23;;;3.40;;
10659;SDS011;5378;53.206;13.316;2022-11-20T00:03:35;3.90;;;3.00;;
10659;SDS011;5378;53.206;13.316;2022-11-20T00:06:23;5.40;;;3.60;;
10659;SDS011;5378;53.206;13.316;2022-11-20T00:09:10;5.77;;;3.13;;
10659;SDS011;5378;53.206;13.316;2022-11-20T00:11:57;4.53;;;3.13;;
10659;SDS011;5378;53.206;13.316;2022-11-20T00:14:44;5.50;;;3.10;;
10659;SDS011;5378;53.206;13.316;2022-11-20T00:17:31;6.93;;;2.87;;
10659;SDS011;5378;53.206;13.316;2022-11-20T00:20:20;8.77;;;3.23;;
10659;SDS011;5378;53.206;13.316;2022-11-20T00:23:07;7.10;;;3.20;;
10659;SDS011;5378;53.206;13.316;2022-11-20T00:25:54;7.40;;;3.20;;
10659;SDS011;5378;53.206;13.316;2022-11-20T00:28:41;5.50;;;3.47;;
10659;SDS011;5378;53.206;13.316;2022-11-20T00:31:29;4.97;;;2.87;;
10659;SDS011;5378;53.206;13.316;2022-11-20T00:34:18;6.60;;;3.73;;
10659;SDS011;5378;53.206;13.316;2022-11-20T00:37:07;5.77;;;3.67;;
10659;SDS011;5378;53.206;13.316;2022-11-20T00:39:54;7.43;;;3.60;;
10659;SDS011;5378;53.206;13.316;2022-11-20T00:42:41;4.70;;;2.97;;
10659;SDS011;5378;53.206;13.316;2022-11-20T00:45:28;6.00;;;3.30;;
10659;SDS011;5378;53.206;13.316;2022-11-20T00:48:15;6.07;;;3.43;;
10659;SDS011;5378;53.206;13.316;2022-11-20T00:51:02;6.33;;;3.00;;
10659;SDS011;5378;53.206;13.316;2022-11-20T00:53:51;7.40;;;4.27;;
10659;SDS011;5378;53.206;13.316;2022-11-20T00:56:38;7.53;;;4.00;;
10659;SDS011;5378;53.206;13.316;2022-11-20T00:59:25;10.20;;;4.10;;
10659;SDS011;5378;53.206;13.316;2022-11-20T01:02:12;9.47;;;4.07;;
10659;SDS011;5378;53.206;13.316;2022-11-20T01:05:01;12.20;;;4.40;;
10659;SDS011;5378;53.206;13.316;2022-11-20T01:07:48;7.03;;;3.53;;
10659;SDS011;5378;53.206;13.316;2022-11-20T01:10:37;7.13;;;4.03;;
10659;SDS011;5378;53.206;13.316;2022-11-20T01:13:24;4.80;;;2.80;;
10659;SDS011;5378;53.206;13.316;2022-11-20T01:16:24;6.30;;;3.47;;
10659;SDS011;5378;53.206;13.316;2022-11-20T01:19:13;6.50;;;3.70;;
10659;SDS011;5378;53.206;13.316;2022-11-20T01:22:02;9.00;;;4.50;;
10659;SDS011;5378;53.206;13.316;2022-11-20T01:24:48;6.67;;;4.20;;
10659;SDS011;5378;53.206;13.316;2022-11-20T01:27:37;8.47;;;4.70;;
10659;SDS011;5378;53.206;13.316;2022-11-20T01:30:24;8.17;;;4.03;;
10659;SDS011;5378;53.206;13.316;2022-11-20T01:33:11;10.23;;;4.47;;
10659;SDS011;5378;53.206;13.316;2022-11-20T01:36:02;6.17;;;3.47;;
10659;SDS011;5378;53.206;13.316;2022-11-20T01:38:51;5.63;;;3.17;;
10659;SDS011;5378;53.206;13.316;2022-11-20T01:41:38;9.10;;;4.70;;
10659;SDS011;5378;53.206;13.316;2022-11-20T01:44:50;8.70;;;4.47;;
10659;SDS011;5378;53.206;13.316;2022-11-20T01:47:43;10.63;;;4.87;;
10659;SDS011;5378;53.206;13.316;2022-11-20T01:50:32;11.80;;;5.27;;
10659;SDS011;5378;53.206;13.316;2022-11-20T01:53:20;7.70;;;4.63;;
10659;SDS011;5378;53.206;13.316;2022-11-20T01:56:11;7.70;;;4.10;;
10659;SDS011;5378;53.206;13.316;2022-11-20T01:58:59;7.43;;;4.10;;
10659;SDS011;5378;53.206;13.316;2022-11-20T02:01:51;8.70;;;4.67;;
10659;SDS011;5378;53.206;13.316;2022-11-20T02:04:39;6.87;;;4.50;;
10659;SDS011;5378;53.206;13.316;2022-11-20T02:07:26;8.70;;;4.60;;
10659;SDS011;5378;53.206;13.316;2022-11-20T02:10:15;7.70;;;4.40;;
10659;SDS011;5378;53.206;13.316;2022-11-20T02:13:02;10.90;;;5.40;;
10659;SDS011;5378;53.206;13.316;2022-11-20T02:16:08;9.37;;;4.67;;
10659;SDS011;5378;53.206;13.316;2022-11-20T02:19:00;7.20;;;3.50;;
10659;SDS011;5378;53.206;13.316;2022-11-20T02:21:53;9.30;;;4.90;;
10659;SDS011;5378;53.206;13.316;2022-11-20T02:24:47;6.80;;;3.83;;
10659;SDS011;5378;53.206;13.316;2022-11-20T02:27:36;6.53;;;4.50;;
10659;SDS011;5378;53.206;13.316;2022-11-20T02:30:24;10.43;;;4.70;;
10659;SDS011;5378;53.206;13.316;2022-11-20T02:33:12;9.47;;;4.97;;
10659;SDS011;5378;53.206;13.316;2022-11-20T02:35:59;8.43;;;4.73;;
10659;SDS011;5378;53.206;13.316;2022-11-20T02:38:46;12.27;;;4.67;;
10659;SDS011;5378;53.206;13.316;2022-11-20T02:41:36;6.20;;;3.93;;
10659;SDS011;5378;53.206;13.316;2022-11-20T02:44:24;9.80;;;6.00;;
10659;SDS011;5378;53.206;13.316;2022-11-20T02:47:11;6.77;;;3.80;;
10659;SDS011;5378;53.206;13.316;2022-11-20T02:49:58;8.87;;;4.23;;
10659;SDS011;5378;53.206;13.316;2022-11-20T02:52:46;8.87;;;4.57;;
10659;SDS011;5378;53.206;13.316;2022-11-20T02:55:33;11.33;;;5.30;;
10659;SDS011;5378;53.206;13.316;2022-11-20T02:58:21;9.53;;;4.10;;
10659;SDS011;5378;53.206;13.316;2022-11-20T03:01:08;8.13;;;4.20;;
10659;SDS011;5378;53.206;13.316;2022-11-20T03:03:55;5.83;;;3.50;;
10659;SDS011;5378;53.206;13.316;2022-11-20T03:06:42;6.97;;;4.23;;
10659;SDS011;5378;53.206;13.316;2022-11-20T03:09:30;8.73;;;4.37;;
10659;SDS011;5378;53.206;13.316;2022-11-20T03:12:18;8.37;;;4.60;;
10659;SDS011;5378;53.206;13.316;2022-11-20T03:15:07;14.30;;;4.53;;
10659;SDS011;5378;53.206;13.316;2022-11-20T03:17:54;8.40;;;3.73;;
10659;SDS011;5378;53.206;13.316;2022-11-20T03:20:41;7.57;;;3.73;;
10659;SDS011;5378;53.206;13.316;2022-11-20T03:23:29;9.87;;;4.80;;
10659;SDS011;5378;53.206;13.316;2022-11-20T03:26:18;10.07;;;4.77;;
10659;SDS011;5378;53.206;13.316;2022-11-20T03:29:07;6.03;;;4.00;;
10659;SDS011;5378;53.206;13.316;2022-11-20T03:31:56;9.20;;;5.10;;
10659;SDS011;5378;53.206;13.316;2022-11-20T03:34:43;13.40;;;4.70;;
10659;SDS011;5378;53.206;13.316;2022-11-20T03:37:31;6.43;;;3.57;;
10659;SDS011;5378;53.206;13.316;2022-11-20T03:40:18;8.60;;;3.87;;
10659;SDS011;5378;53.206;13.316;2022-11-20T03:43:05;9.40;;;5.70;;
10659;SDS011;5378;53.206;13.316;2022-11-20T03:45:53;14.43;;;6.00;;
10659;SDS011;5378;53.206;13.316;2022-11-20T03:48:41;8.37;;;4.70;;
10659;SDS011;5378;53.206;13.316;2022-11-20T03:51:31;11.87;;;5.03;;
10659;SDS011;5378;53.206;13.316;2022-11-20T03:54:18;10.87;;;5.30;;
10659;SDS011;5378;53.206;13.316;2022-11-20T03:57:06;11.00;;;5.80;;
10659;SDS011;5378;53.206;13.316;2022-11-20T03:59:53;10.70;;;4.90;;
10659;SDS011;5378;53.206;13.316;2022-11-20T04:02:40;10.53;;;5.90;;
10659;SDS011;5378;53.206;13.316;2022-11-20T04:05:28;11.30;;;6.77;;
10659;SDS011;5378;53.206;13.316;2022-11-20T04:08:15;11.20;;;5.47;;
10659;SDS011;5378;53.206;13.316;2022-11-20T04:11:09;9.70;;;5.17;;
10659;SDS011;5378;53.206;13.316;2022-11-20T04:13:58;11.80;;;6.30;;
10659;SDS011;5378;53.206;13.316;2022-11-20T04:16:47;10.73;;;5.73;;
10659;SDS011;5378;53.206;13.316;2022-11-20T04:19:34;9.03;;;5.30;;
10659;SDS011;5378;53.206;13.316;2022-11-20T04:22:22;10.73;;;4.63;;
10659;SDS011;5378;53.206;13.316;2022-11-20T04:25:09;10.00;;;4.60;;
10659;SDS011;5378;53.206;13.316;2022-11-20T04:27:57;8.67;;;4.50;;
10659;SDS011;5378;53.206;13.316;2022-11-20T04:30:44;10.53;;;5.07;;
10659;SDS011;5378;53.206;13.316;2022-11-20T04:33:31;9.53;;;5.30;;
10659;SDS011;5378;53.206;13.316;2022-11-20T04:36:19;10.80;;;5.10;;
10659;SDS011;5378;53.206;13.316;2022-11-20T04:39:14;9.07;;;4.63;;
10659;SDS011;5378;53.206;13.316;2022-11-20T04:42:02;8.33;;;5.07;;
10659;SDS011;5378;53.206;13.316;2022-11-20T04:45:07;9.97;;;4.87;;
10659;SDS011;5378;53.206;13.316;2022-11-20T04:47:55;9.40;;;4.70;;
10659;SDS011;5378;53.206;13.316;2022-11-20T04:50:42;13.23;;;5.63;;
10659;SDS011;5378;53.206;13.316;2022-11-20T04:53:29;13.30;;;6.40;;
10659;SDS011;5378;53.206;13.316;2022-11-20T04:56:17;11.57;;;5.10;;
10659;SDS011;5378;53.206;13.316;2022-11-20T04:59:04;10.13;;;5.00;;
10659;SDS011;5378;53.206;13.316;2022-11-20T05:01:51;10.30;;;5.50;;
10659;SDS011;5378;53.206;13.316;2022-11-20T05:04:38;13.43;;;5.70;;
10659;SDS011;5378;53.206;13.316;2022-11-20T05:07:25;14.93;;;6.47;;
10659;SDS011;5378;53.206;13.316;2022-11-20T05:10:12;13.00;;;6.33;;
10659;SDS011;5378;53.206;13.316;2022-11-20T05:13:01;12.83;;;5.70;;
10659;SDS011;5378;53.206;13.316;2022-11-20T05:15:48;14.43;;;5.93;;
10659;SDS011;5378;53.206;13.316;2022-11-20T05:18:36;11.07;;;6.10;;
10659;SDS011;5378;53.206;13.316;2022-11-20T05:21:24;14.23;;;6.90;;
10659;SDS011;5378;53.206;13.316;2022-11-20T05:24:11;19.50;;;6.60;;
10659;SDS011;5378;53.206;13.316;2022-11-20T05:26:58;16.27;;;7.83;;
10659;SDS011;5378;53.206;13.316;2022-11-20T05:29:46;14.10;;;6.07;;
10659;SDS011;5378;53.206;13.316;2022-11-20T05:32:34;16.70;;;7.17;;
10659;SDS011;5378;53.206;13.316;2022-11-20T05:35:21;18.67;;;8.30;;
10659;SDS011;5378;53.206;13.316;2022-11-20T05:38:08;13.30;;;6.23;;
10659;SDS011;5378;53.206;13.316;2022-11-20T05:40:55;19.53;;;8.13;;
10659;SDS011;5378;53.206;13.316;2022-11-20T05:43:49;16.20;;;6.50;;
10659;SDS011;5378;53.206;13.316;2022-11-20T05:46:38;17.40;;;8.00;;
10659;SDS011;5378;53.206;13.316;2022-11-20T05:49:25;16.33;;;6.63;;
10659;SDS011;5378;53.206;13.316;2022-11-20T05:52:12;12.47;;;7.17;;
10659;SDS011;5378;53.206;13.316;2022-11-20T05:55:00;14.23;;;7.00;;
10659;SDS011;5378;53.206;13.316;2022-11-20T05:57:47;16.07;;;7.60;;
10659;SDS011;5378;53.206;13.316;2022-11-20T06:00:34;13.93;;;6.67;;
10659;SDS011;5378;53.206;13.316;2022-11-20T06:03:23;13.20;;;6.17;;
10659;SDS011;5378;53.206;13.316;2022-11-20T06:06:10;16.20;;;7.17;;
10659;SDS011;5378;53.206;13.316;2022-11-20T06:08:57;14.93;;;7.23;;
10659;SDS011;5378;53.206;13.316;2022-11-20T06:11:45;13.67;;;6.83;;
10659;SDS011;5378;53.206;13.316;2022-11-20T06:14:32;16.87;;;8.30;;
10659;SDS011;5378;53.206;13.316;2022-11-20T06:17:19;16.23;;;6.57;;
10659;SDS011;5378;53.206;13.316;2022-11-20T06:20:09;19.67;;;8.40;;
10659;SDS011;5378;53.206;13.316;2022-11-20T06:22:56;16.03;;;7.37;;
10659;SDS011;5378;53.206;13.316;2022-11-20T06:25:43;14.73;;;6.80;;
10659;SDS011;5378;53.206;13.316;2022-11-20T06:28:30;15.30;;;7.43;;
10659;SDS011;5378;53.206;13.316;2022-11-20T06:31:18;13.37;;;6.93;;
10659;SDS011;5378;53.206;13.316;2022-11-20T06:34:07;17.50;;;7.40;;
10659;SDS011;5378;53.206;13.316;2022-11-20T06:36:56;14.80;;;7.13;;
10659;SDS011;5378;53.206;13.316;2022-11-20T06:39:43;11.70;;;6.77;;
10659;SDS011;5378;53.206;13.316;2022-11-20T06:42:30;14.63;;;7.10;;
10659;SDS011;5378;53.206;13.316;2022-11-20T06:45:17;15.30;;;7.00;;
10659;SDS011;5378;53.206;13.316;2022-11-20T06:48:04;13.87;;;6.50;;
10659;SDS011;5378;53.206;13.316;2022-11-20T06:50:52;20.23;;;7.40;;
10659;SDS011;5378;53.206;13.316;2022-11-20T06:53:40;14.27;;;7.50;;
10659;SDS011;5378;53.206;13.316;2022-11-20T06:56:28;11.83;;;6.37;;
10659;SDS011;5378;53.206;13.316;2022-11-20T06:59:15;12.10;;;7.40;;
10659;SDS011;5378;53.206;13.316;2022-11-20T07:02:02;12.47;;;7.03;;
10659;SDS011;5378;53.206;13.316;2022-11-20T07:04:49;15.17;;;7.47;;
10659;SDS011;5378;53.206;13.316;2022-11-20T07:07:36;14.40;;;6.43;;
10659;SDS011;5378;53.206;13.316;2022-11-20T07:10:25;13.97;;;7.00;;
10659;SDS011;5378;53.206;13.316;2022-11-20T07:13:12;16.73;;;7.97;;
10659;SDS011;5378;53.206;13.316;2022-11-20T07:16:00;24.63;;;7.40;;
10659;SDS011;5378;53.206;13.316;2022-11-20T07:18:47;16.80;;;8.13;;
10659;SDS011;5378;53.206;13.316;2022-11-20T07:21:35;15.57;;;7.50;;
10659;SDS011;5378;53.206;13.316;2022-11-20T07:24:22;18.03;;;9.37;;
10659;SDS011;5378;53.206;13.316;2022-11-20T07:27:11;16.00;;;8.73;;
10659;SDS011;5378;53.206;13.316;2022-11-20T07:29:58;23.70;;;10.30;;
10659;SDS011;5378;53.206;13.316;2022-11-20T07:32:46;24.13;;;11.30;;
10659;SDS011;5378;53.206;13.316;2022-11-20T07:35:33;19.63;;;8.60;;
10659;SDS011;5378;53.206;13.316;2022-11-20T07:38:21;19.57;;;9.53;;
10659;SDS011;5378;53.206;13.316;2022-11-20T07:41:08;16.43;;;8.13;;
10659;SDS011;5378;53.206;13.316;2022-11-20T07:43:56;20.80;;;8.80;;
10659;SDS011;5378;53.206;13.316;2022-11-20T07:46:43;16.87;;;7.40;;
10659;SDS011;5378;53.206;13.316;2022-11-20T07:49:30;16.63;;;8.07;;
10659;SDS011;5378;53.206;13.316;2022-11-20T07:52:18;19.60;;;9.23;;
10659;SDS011;5378;53.206;13.316;2022-11-20T07:55:06;21.40;;;8.90;;
10659;SDS011;5378;53.206;13.316;2022-11-20T07:57:54;20.23;;;10.30;;
10659;SDS011;5378;53.206;13.316;2022-11-20T08:00:43;19.90;;;9.17;;
10659;SDS011;5378;53.206;13.316;2022-11-20T08:03:30;12.80;;;7.40;;
10659;SDS011;5378;53.206;13.316;2022-11-20T08:06:17;14.67;;;8.23;;
10659;SDS011;5378;53.206;13.316;2022-11-20T08:09:05;16.10;;;8.47;;
10659;SDS011;5378;53.206;13.316;2022-11-20T08:11:52;19.90;;;8.47;;
10659;SDS011;5378;53.206;13.316;2022-11-20T08:14:56;16.33;;;6.10;;
10659;SDS011;5378;53.206;13.316;2022-11-20T08:17:45;17.00;;;7.87;;
10659;SDS011;5378;53.206;13.316;2022-11-20T08:20:41;15.53;;;7.50;;
10659;SDS011;5378;53.206;13.316;2022-11-20T08:23:28;17.93;;;7.77;;
10659;SDS011;5378;53.206;13.316;2022-11-20T08:26:15;19.83;;;7.80;;
10659;SDS011;5378;53.206;13.316;2022-11-20T08:29:03;16.17;;;8.37;;
10659;SDS011;5378;53.206;13.316;2022-11-20T08:31:50;19.60;;;8.60;;
10659;SDS011;5378;53.206;13.316;2022-11-20T08:34:39;17.53;;;8.90;;
10659;SDS011;5378;53.206;13.316;2022-11-20T08:37:26;20.03;;;8.73;;
10659;SDS011;5378;53.206;13.316;2022-11-20T08:40:13;17.93;;;8.67;;
10659;SDS011;5378;53.206;13.316;2022-11-20T08:43:04;23.07;;;10.40;;
10659;SDS011;5378;53.206;13.316;2022-11-20T08:45:51;20.43;;;11.10;;
10659;SDS011;5378;53.206;13.316;2022-11-20T08:48:38;19.73;;;8.87;;
10659;SDS011;5378;53.206;13.316;2022-11-20T08:51:26;17.33;;;9.53;;
10659;SDS011;5378;53.206;13.316;2022-11-20T08:54:13;23.77;;;8.23;;
10659;SDS011;5378;53.206;13.316;2022-11-20T08:57:01;15.13;;;7.00;;
10659;SDS011;5378;53.206;13.316;2022-11-20T08:59:48;21.07;;;10.13;;
10659;SDS011;5378;53.206;13.316;2022-11-20T09:02:49;25.97;;;10.37;;
10659;SDS011;5378;53.206;13.316;2022-11-20T09:05:37;17.40;;;8.53;;
10659;SDS011;5378;53.206;13.316;2022-11-20T09:08:25;19.50;;;8.17;;
10659;SDS011;5378;53.206;13.316;2022-11-20T09:11:12;20.30;;;8.23;;
10659;SDS011;5378;53.206;13.316;2022-11-20T09:13:59;18.00;;;7.93;;
10659;SDS011;5378;53.206;13.316;2022-11-20T09:16:48;18.53;;;7.80;;
10659;SDS011;5378;53.206;13.316;2022-11-20T09:19:35;17.33;;;7.47;;
10659;SDS011;5378;53.206;13.316;2022-11-20T09:22:22;19.53;;;10.10;;
10659;SDS011;5378;53.206;13.316;2022-11-20T09:25:11;15.97;;;8.37;;
10659;SDS011;5378;53.206;13.316;2022-11-20T09:27:58;21.43;;;9.47;;
10659;SDS011;5378;53.206;13.316;2022-11-20T09:30:45;20.73;;;9.87;;
10659;SDS011;5378;53.206;13.316;2022-11-20T09:33:33;21.40;;;10.40;;
10659;SDS011;5378;53.206;13.316;2022-11-20T09:36:20;19.53;;;9.27;;
10659;SDS011;5378;53.206;13.316;2022-11-20T09:39:07;20.33;;;9.67;;
10659;SDS011;5378;53.206;13.316;2022-11-20T09:42:05;23.17;;;9.67;;
10659;SDS011;5378;53.206;13.316;2022-11-20T09:45:06;23.70;;;11.00;;
10659;SDS011;5378;53.206;13.316;2022-11-20T09:48:18;19.23;;;9.60;;
10659;SDS011;5378;53.206;13.316;2022-11-20T09:51:16;27.10;;;9.70;;
10659;SDS011;5378;53.206;13.316;2022-11-20T09:54:14;23.43;;;10.43;;
10659;SDS011;5378;53.206;13.316;2022-11-20T09:57:05;24.67;;;11.50;;
10659;SDS011;5378;53.206;13.316;2022-11-20T09:59:58;19.30;;;9.50;;
10659;SDS011;5378;53.206;13.316;2022-11-20T10:02:58;26.90;;;11.17;;
10659;SDS011;5378;53.206;13.316;2022-11-20T10:05:49;21.10;;;9.63;;
10659;SDS011;5378;53.206;13.316;2022-11-20T10:08:40;22.13;;;10.43;;
10659;SDS011;5378;53.206;13.316;2022-11-20T10:11:33;24.60;;;10.23;;
10659;SDS011;5378;53.206;13.316;2022-11-20T10:14:36;20.47;;;10.23;;
10659;SDS011;5378;53.206;13.316;2022-11-20T10:17:39;22.10;;;9.30;;
10659;SDS011;5378;53.206;13.316;2022-11-20T10:20:40;23.80;;;9.53;;
10659;SDS011;5378;53.206;13.316;2022-11-20T10:23:45;19.87;;;9.27;;
10659;SDS011;5378;53.206;13.316;2022-11-20T10:26:53;22.90;;;11.00;;
10659;SDS011;5378;53.206;13.316;2022-11-20T10:29:53;21.60;;;9.63;;
10659;SDS011;5378;53.206;13.316;2022-11-20T10:32:48;23.87;;;9.90;;
10659;SDS011;5378;53.206;13.316;2022-11-20T10:35:39;20.40;;;9.87;;
10659;SDS011;5378;53.206;13.316;2022-11-20T10:38:30;17.47;;;8.40;;
10659;SDS011;5378;53.206;13.316;2022-11-20T10:41:22;20.70;;;10.10;;
10659;SDS011;5378;53.206;13.316;2022-11-20T10:44:12;26.80;;;11.30;;
10659;SDS011;5378;53.206;13.316;2022-11-20T10:47:25;21.20;;;10.90;;
10659;SDS011;5378;53.206;13.316;2022-11-20T10:50:16;21.07;;;9.97;;
10659;SDS011;5378;53.206;13.316;2022-11-20T10:53:08;21.77;;;9.97;;
10659;SDS011;5378;53.206;13.316;2022-11-20T10:56:07;21.60;;;9.40;;
10659;SDS011;5378;53.206;13.316;2022-11-20T11:02:44;22.40;;;10.10;;
10659;SDS011;5378;53.206;13.316;2022-11-20T11:05:35;20.40;;;10.00;;
10659;SDS011;5378;53.206;13.316;2022-11-20T11:08:26;23.00;;;8.87;;
10659;SDS011;5378;53.206;13.316;2022-11-20T11:11:21;18.70;;;8.50;;
10659;SDS011;5378;53.206;13.316;2022-11-20T11:14:11;18.50;;;8.30;;
10659;SDS011;5378;53.206;13.316;2022-11-20T11:16:59;17.50;;;9.20;;
10659;SDS011;5378;53.206;13.316;2022-11-20T11:19:57;15.43;;;7.87;;
10659;SDS011;5378;53.206;13.316;2022-11-20T11:22:50;16.17;;;8.20;;
10659;SDS011;5378;53.206;13.316;2022-11-20T11:25:38;18.87;;;8.37;;
10659;SDS011;5378;53.206;13.316;2022-11-20T11:28:26;17.37;;;8.67;;
10659;SDS011;5378;53.206;13.316;2022-11-20T11:31:21;15.97;;;7.90;;
10659;SDS011;5378;53.206;13.316;2022-11-20T11:34:11;24.10;;;10.87;;
10659;SDS011;5378;53.206;13.316;2022-11-20T11:37:01;18.37;;;8.47;;
10659;SDS011;5378;53.206;13.316;2022-11-20T11:39:49;24.00;;;11.70;;
10659;SDS011;5378;53.206;13.316;2022-11-20T11:42:50;21.33;;;11.23;;
10659;SDS011;5378;53.206;13.316;2022-11-20T11:45:50;18.33;;;9.97;;
10659;SDS011;5378;53.206;13.316;2022-11-20T11:48:37;19.90;;;9.90;;
10659;SDS011;5378;53.206;13.316;2022-11-20T11:51:26;16.50;;;8.50;;
10659;SDS011;5378;53.206;13.316;2022-11-20T11:54:19;17.73;;;9.00;;
10659;SDS011;5378;53.206;13.316;2022-11-20T11:57:12;20.30;;;8.63;;
10659;SDS011;5378;53.206;13.316;2022-11-20T12:00:06;16.53;;;8.80;;
10659;SDS011;5378;53.206;13.316;2022-11-20T12:02:59;15.53;;;7.60;;
10659;SDS011;5378;53.206;13.316;2022-11-20T12:05:53;16.37;;;8.87;;
10659;SDS011;5378;53.206;13.316;2022-11-20T12:08:44;18.60;;;9.70;;
10659;SDS011;5378;53.206;13.316;2022-11-20T12:11:38;17.40;;;8.90;;
10659;SDS011;5378;53.206;13.316;2022-11-20T12:14:31;17.87;;;8.47;;
10659;SDS011;5378;53.206;13.316;2022-11-20T12:17:21;16.33;;;7.37;;
10659;SDS011;5378;53.206;13.316;2022-11-20T12:20:11;12.23;;;7.10;;
10659;SDS011;5378;53.206;13.316;2022-11-20T12:23:02;12.50;;;6.70;;
10659;SDS011;5378;53.206;13.316;2022-11-20T12:25:56;14.77;;;7.67;;
10659;SDS011;5378;53.206;13.316;2022-11-20T12:28:53;13.70;;;6.90;;
10659;SDS011;5378;53.206;13.316;2022-11-20T12:31:54;19.17;;;8.50;;
10659;SDS011;5378;53.206;13.316;2022-11-20T12:34:56;13.17;;;7.50;;
10659;SDS011;5378;53.206;13.316;2022-11-20T12:37:52;16.20;;;7.07;;
10659;SDS011;5378;53.206;13.316;2022-11-20T12:40:50;11.90;;;5.97;;
10659;SDS011;5378;53.206;13.316;2022-11-20T12:43:47;16.53;;;7.00;;
10659;SDS011;5378;53.206;13.316;2022-11-20T12:47:07;18.47;;;9.00;;
10659;SDS011;5378;53.206;13.316;2022-11-20T12:50:02;16.67;;;7.60;;
10659;SDS011;5378;53.206;13.316;2022-11-20T12:53:00;25.07;;;9.30;;
10659;SDS011;5378;53.206;13.316;2022-11-20T12:55:53;18.43;;;8.03;;
10659;SDS011;5378;53.206;13.316;2022-11-20T12:58:49;15.37;;;8.23;;
10659;SDS011;5378;53.206;13.316;2022-11-20T13:01:47;16.80;;;8.80;;
10659;SDS011;5378;53.206;13.316;2022-11-20T13:04:48;18.73;;;8.20;;
10659;SDS011;5378;53.206;13.316;2022-11-20T13:07:50;19.27;;;8.47;;
10659;SDS011;5378;53.206;13.316;2022-11-20T13:10:42;17.93;;;7.53;;
10659;SDS011;5378;53.206;13.316;2022-11-20T13:13:49;24.83;;;8.93;;
10659;SDS011;5378;53.206;13.316;2022-11-20T13:16:51;18.50;;;8.40;;
10659;SDS011;5378;53.206;13.316;2022-11-20T13:19:46;17.80;;;7.80;;
10659;SDS011;5378;53.206;13.316;2022-11-20T13:22:42;19.57;;;8.10;;
10659;SDS011;5378;53.206;13.316;2022-11-20T13:25:31;16.97;;;7.50;;
10659;SDS011;5378;53.206;13.316;2022-11-20T13:28:26;15.80;;;7.33;;
10659;SDS011;5378;53.206;13.316;2022-11-20T13:34:22;18.30;;;8.37;;
10659;SDS011;5378;53.206;13.316;2022-11-20T13:37:23;22.07;;;8.47;;
10659;SDS011;5378;53.206;13.316;2022-11-20T13:40:13;11.63;;;6.80;;
10659;SDS011;5378;53.206;13.316;2022-11-20T13:43:14;21.93;;;10.40;;
10659;SDS011;5378;53.206;13.316;2022-11-20T13:46:06;19.70;;;9.30;;
10659;SDS011;5378;53.206;13.316;2022-11-20T13:48:56;13.03;;;6.80;;
10659;SDS011;5378;53.206;13.316;2022-11-20T13:51:43;13.33;;;7.53;;
10659;SDS011;5378;53.206;13.316;2022-11-20T13:54:49;17.23;;;7.40;;
10659;SDS011;5378;53.206;13.316;2022-11-20T13:57:57;19.27;;;8.67;;
10659;SDS011;5378;53.206;13.316;2022-11-20T14:00:58;12.77;;;6.43;;
10659;SDS011;5378;53.206;13.316;2022-11-20T14:03:54;16.27;;;7.63;;
10659;SDS011;5378;53.206;13.316;2022-11-20T14:06:58;13.27;;;7.03;;
10659;SDS011;5378;53.206;13.316;2022-11-20T14:09:49;15.00;;;7.23;;
10659;SDS011;5378;53.206;13.316;2022-11-20T14:12:38;16.60;;;7.97;;
10659;SDS011;5378;53.206;13.316;2022-11-20T14:15:26;14.30;;;8.30;;
10659;SDS011;5378;53.206;13.316;2022-11-20T14:18:19;17.67;;;8.10;;
10659;SDS011;5378;53.206;13.316;2022-11-20T14:21:08;15.00;;;7.93;;
10659;SDS011;5378;53.206;13.316;2022-11-20T14:24:09;22.90;;;8.80;;
10659;SDS011;5378;53.206;13.316;2022-11-20T14:26:57;13.87;;;8.17;;
10659;SDS011;5378;53.206;13.316;2022-11-20T14:29:45;15.47;;;7.93;;
10659;SDS011;5378;53.206;13.316;2022-11-20T14:32:34;14.60;;;8.00;;
10659;SDS011;5378;53.206;13.316;2022-11-20T14:35:24;16.60;;;6.67;;
10659;SDS011;5378;53.206;13.316;2022-11-20T14:38:13;16.77;;;7.43;;
10659;SDS011;5378;53.206;13.316;2022-11-20T14:41:07;18.53;;;6.97;;
10659;SDS011;5378;53.206;13.316;2022-11-20T14:43:55;15.80;;;7.67;;
10659;SDS011;5378;53.206;13.316;2022-11-20T14:46:44;12.40;;;7.80;;
10659;SDS011;5378;53.206;13.316;2022-11-20T14:49:31;16.77;;;8.80;;
10659;SDS011;5378;53.206;13.316;2022-11-20T14:52:19;18.17;;;8.70;;
10659;SDS011;5378;53.206;13.316;2022-11-20T14:55:13;18.53;;;10.00;;
10659;SDS011;5378;53.206;13.316;2022-11-20T14:58:21;16.90;;;7.77;;
10659;SDS011;5378;53.206;13.316;2022-11-20T15:01:11;16.33;;;8.73;;
10659;SDS011;5378;53.206;13.316;2022-11-20T15:04:00;17.40;;;8.00;;
10659;SDS011;5378;53.206;13.316;2022-11-20T15:06:52;14.40;;;7.57;;
10659;SDS011;5378;53.206;13.316;2022-11-20T15:09:40;14.60;;;7.03;;
10659;SDS011;5378;53.206;13.316;2022-11-20T15:12:28;13.10;;;8.13;;
10659;SDS011;5378;53.206;13.316;2022-11-20T15:15:19;12.47;;;7.17;;
10659;SDS011;5378;53.206;13.316;2022-11-20T15:18:10;18.97;;;8.40;;
10659;SDS011;5378;53.206;13.316;2022-11-20T15:20:58;16.83;;;7.23;;
10659;SDS011;5378;53.206;13.316;2022-11-20T15:23:48;14.10;;;6.70;;
10659;SDS011;5378;53.206;13.316;2022-11-20T15:26:35;11.60;;;6.87;;
10659;SDS011;5378;53.206;13.316;2022-11-20T15:29:25;16.00;;;7.00;;
10659;SDS011;5378;53.206;13.316;2022-11-20T15:32:13;12.60;;;6.93;;
10659;SDS011;5378;53.206;13.316;2022-11-20T15:35:00;13.70;;;6.67;;
10659;SDS011;5378;53.206;13.316;2022-11-20T15:37:48;9.40;;;5.60;;
10659;SDS011;5378;53.206;13.316;2022-11-20T15:40:35;11.80;;;5.60;;
10659;SDS011;5378;53.206;13.316;2022-11-20T15:43:22;11.33;;;5.33;;
10659;SDS011;5378;53.206;13.316;2022-11-20T15:46:10;10.47;;;5.93;;
10659;SDS011;5378;53.206;13.316;2022-11-20T15:49:01;9.07;;;4.97;;
10659;SDS011;5378;53.206;13.316;2022-11-20T15:51:48;13.03;;;5.87;;
10659;SDS011;5378;53.206;13.316;2022-11-20T15:54:38;9.60;;;5.50;;
10659;SDS011;5378;53.206;13.316;2022-11-20T15:57:25;14.00;;;7.40;;
10659;SDS011;5378;53.206;13.316;2022-11-20T16:00:13;10.30;;;5.33;;
10659;SDS011;5378;53.206;13.316;2022-11-20T16:03:04;11.83;;;6.27;;
10659;SDS011;5378;53.206;13.316;2022-11-20T16:05:52;10.07;;;5.80;;
10659;SDS011;5378;53.206;13.316;2022-11-20T16:08:39;18.43;;;6.97;;
10659;SDS011;5378;53.206;13.316;2022-11-20T16:11:26;12.90;;;6.00;;
10659;SDS011;5378;53.206;13.316;2022-11-20T16:14:13;13.00;;;6.63;;
10659;SDS011;5378;53.206;13.316;2022-11-20T16:17:18;13.57;;;6.10;;
10659;SDS011;5378;53.206;13.316;2022-11-20T16:20:25;17.87;;;7.03;;
10659;SDS011;5378;53.206;13.316;2022-11-20T16:23:13;11.10;;;5.67;;
10659;SDS011;5378;53.206;13.316;2022-11-20T16:26:08;10.70;;;6.10;;
10659;SDS011;5378;53.206;13.316;2022-11-20T16:28:56;10.63;;;5.57;;
10659;SDS011;5378;53.206;13.316;2022-11-20T16:31:44;11.07;;;6.10;;
10659;SDS011;5378;53.206;13.316;2022-11-20T16:34:32;10.60;;;5.90;;
10659;SDS011;5378;53.206;13.316;2022-11-20T16:37:19;11.50;;;5.90;;
10659;SDS011;5378;53.206;13.316;2022-11-20T16:40:08;8.53;;;5.57;;
10659;SDS011;5378;53.206;13.316;2022-11-20T16:42:56;9.50;;;4.40;;
10659;SDS011;5378;53.206;13.316;2022-11-20T16:45:44;8.33;;;4.80;;
10659;SDS011;5378;53.206;13.316;2022-11-20T16:48:31;6.97;;;4.27;;
10659;SDS011;5378;53.206;13.316;2022-11-20T16:51:18;8.37;;;4.40;;
10659;SDS011;5378;53.206;13.316;2022-11-20T16:54:05;7.50;;;4.47;;
10659;SDS011;5378;53.206;13.316;2022-11-20T16:56:55;10.37;;;4.73;;
10659;SDS011;5378;53.206;13.316;2022-11-20T16:59:42;11.03;;;5.90;;